Cypress Inn, Tennessee
Current Conditions -  °F | °C
As of 5:53 PM on Monday 20 Oct 2014 (Local Time) from KMSL Reporting Station
Broken Clouds Broken Clouds  
Wind Chill: 66°   Ceiling: 8500
Heat Index: 66°   Visibility: 10mi
Dew Point: 47°   Wind: 6mph
Humidity: 50%   Direction: 270°W
Pressure: 30.02"   Gusts: NA
Location:  35.01°N, 87.82°W
Report Text: KMSL 202253Z AUTO 27005KT 10SM BKN085 19/08 A3002 RMK AO2 SLP163 T01890083
Loading
Personal Weather Stations






























Interactive Weather Map
Tropical Storm Tracking
New forecast layout! Learn more

10-Day Weather Forecast

Advertisements
Track Severe Weather on mobile